• Join FlightAware (Why Join?)
  • Login
  • US Flag 
06:33PM EDT


 

Airport Tracker/Info


-or-


 

Live Flight TrackerFlight Track Log ✈ SLI230 ✈ 10-May-2013 ✈ MMMX / MEX - MMTC / TRC

Flight Track Log - Related Links

Times and Time Zones

All times are in EDT time to prevent confusion due to time zone crossing. See the SLI230 flight status page for this flight to view local times or setup timezone preferences in your user account.

Time Position Orientation Groundspeed Altitude Reporting Facility
EDT Latitude Longitude Course Direction KTS MPH feet Rate Location/Type
01:50PM 19.6744 -99.2324 328° Northwest  Level Estimated
01:51PM 19.7537 -99.2859 328° Northwest  Level Estimated
01:52PM 19.8330 -99.3395 328° Northwest  Level Estimated
01:53PM 19.9123 -99.3931 328° Northwest  Level Estimated
01:54PM 19.9916 -99.4468 328° Northwest  Level Estimated
01:55PM 20.0708 -99.5005 328° Northwest  Level Estimated
01:56PM 20.1500 -99.5544 327° Northwest  Level Estimated
01:57PM 20.2293 -99.6082 327° Northwest  Level Estimated
01:58PM 20.3085 -99.6621 327° Northwest  Level Estimated
01:59PM 20.3877 -99.7161 327° Northwest  Level Estimated
02:00PM 20.4669 -99.7701 327° Northwest  Level Estimated
02:01PM 20.5460 -99.8242 327° Northwest  Level Estimated
02:02PM 20.6252 -99.8783 327° Northwest  Level Estimated
02:03PM 20.7043 -99.9325 327° Northwest  Level Estimated
02:04PM 20.7834 -99.9867 327° Northwest  Level Estimated
02:05PM 20.8625 -100.0410 327° Northwest  Level Estimated
02:06PM 20.9416 -100.0954 327° Northwest  Level Estimated
02:07PM 21.0206 -100.1498 327° Northwest  Level Estimated
02:08PM 21.0997 -100.2043 327° Northwest  Level Estimated
02:09PM 21.1787 -100.2588 327° Northwest  Level Estimated
02:10PM 21.2577 -100.3134 327° Northwest  Level Estimated
02:11PM 21.3367 -100.3680 327° Northwest  Level Estimated
02:12PM 21.4156 -100.4227 327° Northwest  Level Estimated
02:13PM 21.4946 -100.4775 327° Northwest  Level Estimated
02:14PM 21.5735 -100.5323 327° Northwest  Level Estimated
02:15PM 21.6524 -100.5872 327° Northwest  Level Estimated
02:16PM 21.7313 -100.6421 327° Northwest  Level Estimated
02:17PM 21.8102 -100.6971 327° Northwest  Level Estimated
02:18PM 21.8891 -100.7522 327° Northwest  Level Estimated
02:19PM 21.9679 -100.8073 327° Northwest  Level Estimated
02:20PM 22.0467 -100.8625 327° Northwest  Level Estimated
02:21PM 22.1255 -100.9178 327° Northwest  Level Estimated
02:22PM 22.2043 -100.9731 327° Northwest  Level Estimated
02:23PM 22.2831 -101.0285 327° Northwest  Level Estimated
02:24PM 22.3619 -101.0839 327° Northwest  Level Estimated
02:25PM 22.4406 -101.1394 327° Northwest  Level Estimated
02:26PM 22.5193 -101.1949 327° Northwest  Level Estimated
02:27PM 22.5980 -101.2506 327° Northwest  Level Estimated
02:28PM 22.6767 -101.3063 327° Northwest  Level Estimated
02:29PM 22.7553 -101.3620 327° Northwest  Level Estimated
02:30PM 22.8340 -101.4178 327° Northwest  Level Estimated
02:31PM 22.9126 -101.4737 327° Northwest  Level Estimated
02:32PM 22.9912 -101.5296 327° Northwest  Level Estimated
02:33PM 23.0697 -101.5857 327° Northwest  Level Estimated
02:34PM 23.1483 -101.6417 327° Northwest  Level Estimated
02:35PM 23.2269 -101.6979 327° Northwest  Level Estimated
02:36PM 23.3054 -101.7541 327° Northwest  Level Estimated
02:37PM 23.3839 -101.8104 327° Northwest  Level Estimated
02:38PM 23.4624 -101.8667 327° Northwest  Level Estimated
02:39PM 23.5408 -101.9231 327° Northwest  Level Estimated
02:40PM 23.6192 -101.9796 327° Northwest  Level Estimated
02:41PM 23.6977 -102.0361 327° Northwest  Level Estimated
02:42PM 23.7761 -102.0927 327° Northwest  Level Estimated
02:43PM 23.8544 -102.1494 327° Northwest  Level Estimated
02:44PM 23.9328 -102.2062 326° Northwest  Level Estimated
02:45PM 24.0111 -102.2630 326° Northwest  Level Estimated
02:46PM 24.0894 -102.3199 326° Northwest  Level Estimated
02:47PM 24.1677 -102.3768 326° Northwest  Level Estimated
02:48PM 24.2460 -102.4339 326° Northwest  Level Estimated
02:49PM 24.3242 -102.4910 326° Northwest  Level Estimated
02:50PM 24.4025 -102.5481 326° Northwest  Level Estimated
02:51PM 24.4807 -102.6054 326° Northwest  Level Estimated
02:52PM 24.5588 -102.6627 326° Northwest  Level Estimated
02:53PM 24.6370 -102.7200 326° Northwest  Level Estimated
02:54PM 24.7152 -102.7775 326° Northwest  Level Estimated
02:55PM 24.7933 -102.8350 326° Northwest  Level Estimated
02:56PM 24.8714 -102.8926 326° Northwest  Level Estimated
02:57PM 24.9494 -102.9503 326° Northwest  Level Estimated
02:58PM 25.0275 -103.0080 326° Northwest  Level Estimated
02:59PM 25.1055 -103.0658 326° Northwest  Level Estimated
03:00PM 25.1835 -103.1237 326° Northwest  Level Estimated
03:01PM 25.2615 -103.1817 326° Northwest  Level Estimated
03:02PM 25.3395 -103.2397 326° Northwest  Level Estimated